sensor_id;sensor_type;location;lat;lon;timestamp;pressure;altitude;pressure_sealevel;temperature;humidity
23589;BME280;11972;48.078;11.876;2022-09-09T00:00:51;95205.56;;;11.90;100.00
23589;BME280;11972;48.078;11.876;2022-09-09T00:09:19;95203.88;;;11.82;100.00
23589;BME280;11972;48.078;11.876;2022-09-09T00:13:47;95191.28;;;11.84;100.00
23589;BME280;11972;48.078;11.876;2022-09-09T00:26:05;95209.34;;;11.74;100.00
23589;BME280;11972;48.078;11.876;2022-09-09T00:30:24;95205.16;;;11.93;100.00
23589;BME280;11972;48.078;11.876;2022-09-09T00:34:26;95208.47;;;12.08;100.00
23589;BME280;11972;48.078;11.876;2022-09-09T00:38:37;95200.34;;;12.16;100.00
23589;BME280;11972;48.078;11.876;2022-09-09T00:42:42;95207.09;;;12.19;100.00
23589;BME280;11972;48.078;11.876;2022-09-09T00:47:03;95204.44;;;12.19;100.00
23589;BME280;11972;48.078;11.876;2022-09-09T00:51:15;95203.25;;;12.35;100.00
23589;BME280;11972;48.078;11.876;2022-09-09T00:59:44;95211.25;;;12.68;100.00
23589;BME280;11972;48.078;11.876;2022-09-09T01:03:48;95202.91;;;12.84;100.00
23589;BME280;11972;48.078;11.876;2022-09-09T01:07:51;95205.75;;;13.03;100.00
23589;BME280;11972;48.078;11.876;2022-09-09T01:11:52;95200.41;;;13.16;100.00
23589;BME280;11972;48.078;11.876;2022-09-09T01:15:58;95197.59;;;13.24;100.00
23589;BME280;11972;48.078;11.876;2022-09-09T01:20:17;95194.53;;;13.27;100.00
23589;BME280;11972;48.078;11.876;2022-09-09T01:29:09;95199.03;;;13.33;100.00
23589;BME280;11972;48.078;11.876;2022-09-09T01:33:15;95195.53;;;13.39;100.00
23589;BME280;11972;48.078;11.876;2022-09-09T01:37:15;95200.03;;;13.46;100.00
23589;BME280;11972;48.078;11.876;2022-09-09T01:41:16;95199.59;;;13.49;100.00
23589;BME280;11972;48.078;11.876;2022-09-09T01:45:16;95196.53;;;13.52;100.00
23589;BME280;11972;48.078;11.876;2022-09-09T01:49:17;95208.56;;;13.54;100.00
23589;BME280;11972;48.078;11.876;2022-09-09T01:53:20;95205.28;;;13.59;100.00
23589;BME280;11972;48.078;11.876;2022-09-09T01:57:25;95204.66;;;13.63;100.00
23589;BME280;11972;48.078;11.876;2022-09-09T02:01:49;95200.78;;;13.66;100.00
23589;BME280;11972;48.078;11.876;2022-09-09T02:10:10;95189.91;;;13.74;100.00
23589;BME280;11972;48.078;11.876;2022-09-09T02:14:16;95193.78;;;13.78;100.00
23589;BME280;11972;48.078;11.876;2022-09-09T02:18:24;95191.75;;;13.80;100.00
23589;BME280;11972;48.078;11.876;2022-09-09T02:22:27;95189.31;;;13.79;100.00
23589;BME280;11972;48.078;11.876;2022-09-09T02:26:31;95185.63;;;13.80;100.00
23589;BME280;11972;48.078;11.876;2022-09-09T02:30:34;95181.53;;;13.77;100.00
23589;BME280;11972;48.078;11.876;2022-09-09T02:34:44;95182.78;;;13.75;100.00
23589;BME280;11972;48.078;11.876;2022-09-09T02:38:47;95195.03;;;13.69;100.00
23589;BME280;11972;48.078;11.876;2022-09-09T02:42:54;95198.13;;;13.66;100.00
23589;BME280;11972;48.078;11.876;2022-09-09T02:47:14;95187.94;;;13.63;100.00
23589;BME280;11972;48.078;11.876;2022-09-09T02:55:45;95191.41;;;13.57;100.00
23589;BME280;11972;48.078;11.876;2022-09-09T02:59:46;95182.22;;;13.59;100.00
23589;BME280;11972;48.078;11.876;2022-09-09T03:03:47;95165.25;;;13.60;100.00
23589;BME280;11972;48.078;11.876;2022-09-09T03:07:49;95170.38;;;13.62;100.00
23589;BME280;11972;48.078;11.876;2022-09-09T03:11:51;95187.31;;;13.61;100.00
23589;BME280;11972;48.078;11.876;2022-09-09T03:15:59;95177.94;;;13.58;100.00
23589;BME280;11972;48.078;11.876;2022-09-09T03:20:03;95181.00;;;13.49;100.00
23589;BME280;11972;48.078;11.876;2022-09-09T03:24:04;95176.78;;;13.34;100.00
23589;BME280;11972;48.078;11.876;2022-09-09T03:28:06;95169.63;;;13.22;100.00
23589;BME280;11972;48.078;11.876;2022-09-09T03:32:06;95156.78;;;13.12;100.00
23589;BME280;11972;48.078;11.876;2022-09-09T03:36:10;95165.34;;;13.07;100.00
23589;BME280;11972;48.078;11.876;2022-09-09T03:40:11;95150.28;;;13.01;100.00
23589;BME280;11972;48.078;11.876;2022-09-09T03:44:11;95151.13;;;12.88;100.00
23589;BME280;11972;48.078;11.876;2022-09-09T03:48:11;95155.81;;;12.73;100.00
23589;BME280;11972;48.078;11.876;2022-09-09T03:52:12;95159.47;;;12.59;100.00
23589;BME280;11972;48.078;11.876;2022-09-09T03:56:12;95161.31;;;12.52;100.00
23589;BME280;11972;48.078;11.876;2022-09-09T04:00:13;95158.84;;;12.44;100.00
23589;BME280;11972;48.078;11.876;2022-09-09T04:04:13;95156.00;;;12.38;100.00
23589;BME280;11972;48.078;11.876;2022-09-09T04:08:14;95157.22;;;12.42;100.00
23589;BME280;11972;48.078;11.876;2022-09-09T04:12:14;95164.56;;;12.40;100.00
23589;BME280;11972;48.078;11.876;2022-09-09T04:16:14;95163.34;;;12.50;100.00
23589;BME280;11972;48.078;11.876;2022-09-09T04:20:15;95149.50;;;12.61;100.00
23589;BME280;11972;48.078;11.876;2022-09-09T04:24:15;95159.06;;;12.69;100.00
23589;BME280;11972;48.078;11.876;2022-09-09T04:28:17;95160.72;;;12.76;100.00
23589;BME280;11972;48.078;11.876;2022-09-09T04:32:18;95151.94;;;12.82;100.00
23589;BME280;11972;48.078;11.876;2022-09-09T04:36:19;95136.22;;;12.87;100.00
23589;BME280;11972;48.078;11.876;2022-09-09T04:40:19;95127.03;;;12.83;100.00
23589;BME280;11972;48.078;11.876;2022-09-09T04:44:20;95136.44;;;12.79;100.00
23589;BME280;11972;48.078;11.876;2022-09-09T04:48:20;95145.41;;;12.78;100.00
23589;BME280;11972;48.078;11.876;2022-09-09T04:52:21;95150.31;;;12.81;100.00
23589;BME280;11972;48.078;11.876;2022-09-09T04:56:21;95145.81;;;12.88;100.00
23589;BME280;11972;48.078;11.876;2022-09-09T05:00:21;95143.34;;;12.94;100.00
23589;BME280;11972;48.078;11.876;2022-09-09T05:04:22;95135.59;;;12.99;100.00
23589;BME280;11972;48.078;11.876;2022-09-09T05:08:22;95143.75;;;13.04;100.00
23589;BME280;11972;48.078;11.876;2022-09-09T05:12:23;95135.16;;;13.08;100.00
23589;BME280;11972;48.078;11.876;2022-09-09T05:16:25;95143.94;;;13.15;100.00
23589;BME280;11972;48.078;11.876;2022-09-09T05:20:27;95155.16;;;13.24;100.00
23589;BME280;11972;48.078;11.876;2022-09-09T05:24:28;95142.06;;;13.36;100.00
23589;BME280;11972;48.078;11.876;2022-09-09T05:28:28;95151.63;;;13.50;100.00
23589;BME280;11972;48.078;11.876;2022-09-09T05:32:30;95149.09;;;13.69;100.00
23589;BME280;11972;48.078;11.876;2022-09-09T05:36:34;95154.50;;;13.94;100.00
23589;BME280;11972;48.078;11.876;2022-09-09T05:40:34;95152.94;;;14.24;100.00
23589;BME280;11972;48.078;11.876;2022-09-09T05:44:35;95160.75;;;14.44;100.00
23589;BME280;11972;48.078;11.876;2022-09-09T05:48:43;95169.34;;;14.53;100.00
23589;BME280;11972;48.078;11.876;2022-09-09T05:52:44;95165.38;;;14.62;100.00
23589;BME280;11972;48.078;11.876;2022-09-09T05:56:44;95163.50;;;14.69;100.00
23589;BME280;11972;48.078;11.876;2022-09-09T06:00:44;95168.72;;;14.76;100.00
23589;BME280;11972;48.078;11.876;2022-09-09T06:04:45;95169.28;;;14.84;100.00
23589;BME280;11972;48.078;11.876;2022-09-09T06:08:45;95172.28;;;14.95;100.00
23589;BME280;11972;48.078;11.876;2022-09-09T06:12:46;95174.66;;;15.03;100.00
23589;BME280;11972;48.078;11.876;2022-09-09T06:16:46;95185.28;;;15.03;100.00
23589;BME280;11972;48.078;11.876;2022-09-09T06:20:54;95167.72;;;15.02;100.00
23589;BME280;11972;48.078;11.876;2022-09-09T06:24:54;95154.41;;;15.02;100.00
23589;BME280;11972;48.078;11.876;2022-09-09T06:28:55;95166.22;;;15.06;100.00
23589;BME280;11972;48.078;11.876;2022-09-09T06:32:57;95167.09;;;15.00;100.00
23589;BME280;11972;48.078;11.876;2022-09-09T06:36:58;95172.84;;;14.97;100.00
23589;BME280;11972;48.078;11.876;2022-09-09T06:40:59;95169.91;;;15.05;100.00
23589;BME280;11972;48.078;11.876;2022-09-09T06:44:59;95175.56;;;15.15;100.00
23589;BME280;11972;48.078;11.876;2022-09-09T06:49:00;95176.09;;;15.24;100.00
23589;BME280;11972;48.078;11.876;2022-09-09T06:53:00;95182.09;;;15.37;100.00
23589;BME280;11972;48.078;11.876;2022-09-09T06:57:02;95178.28;;;15.52;100.00
23589;BME280;11972;48.078;11.876;2022-09-09T07:01:06;95176.81;;;15.74;100.00
23589;BME280;11972;48.078;11.876;2022-09-09T07:05:07;95179.19;;;16.01;100.00
23589;BME280;11972;48.078;11.876;2022-09-09T07:09:13;95168.72;;;16.18;100.00
23589;BME280;11972;48.078;11.876;2022-09-09T07:13:13;95166.66;;;16.31;100.00
23589;BME280;11972;48.078;11.876;2022-09-09T07:17:15;95160.69;;;16.48;100.00
23589;BME280;11972;48.078;11.876;2022-09-09T07:21:16;95167.66;;;16.49;100.00
23589;BME280;11972;48.078;11.876;2022-09-09T07:25:17;95168.72;;;16.59;100.00
23589;BME280;11972;48.078;11.876;2022-09-09T07:29:18;95174.69;;;16.73;100.00
23589;BME280;11972;48.078;11.876;2022-09-09T07:33:18;95177.03;;;16.81;100.00
23589;BME280;11972;48.078;11.876;2022-09-09T07:37:20;95165.56;;;16.93;100.00
23589;BME280;11972;48.078;11.876;2022-09-09T07:45:28;95171.97;;;17.15;100.00
23589;BME280;11972;48.078;11.876;2022-09-09T07:49:28;95183.78;;;17.19;100.00
23589;BME280;11972;48.078;11.876;2022-09-09T07:53:28;95187.97;;;17.15;100.00
23589;BME280;11972;48.078;11.876;2022-09-09T07:57:30;95222.31;;;17.00;100.00
23589;BME280;11972;48.078;11.876;2022-09-09T08:01:36;95256.41;;;16.19;100.00
23589;BME280;11972;48.078;11.876;2022-09-09T08:05:39;95253.47;;;15.22;100.00
23589;BME280;11972;48.078;11.876;2022-09-09T08:09:39;95262.34;;;14.84;100.00
23589;BME280;11972;48.078;11.876;2022-09-09T08:13:41;95271.06;;;14.60;100.00
23589;BME280;11972;48.078;11.876;2022-09-09T08:17:41;95279.09;;;14.47;100.00
23589;BME280;11972;48.078;11.876;2022-09-09T08:21:44;95275.78;;;14.58;100.00
23589;BME280;11972;48.078;11.876;2022-09-09T08:25:44;95282.66;;;14.72;100.00
23589;BME280;11972;48.078;11.876;2022-09-09T08:29:45;95273.75;;;14.92;100.00
23589;BME280;11972;48.078;11.876;2022-09-09T08:33:46;95285.75;;;15.01;100.00
23589;BME280;11972;48.078;11.876;2022-09-09T08:37:46;95283.00;;;15.14;100.00
23589;BME280;11972;48.078;11.876;2022-09-09T08:46:10;95275.66;;;15.34;100.00
23589;BME280;11972;48.078;11.876;2022-09-09T08:50:34;95279.03;;;15.48;100.00
23589;BME280;11972;48.078;11.876;2022-09-09T08:54:35;95285.94;;;15.56;100.00
23589;BME280;11972;48.078;11.876;2022-09-09T08:58:51;95290.94;;;15.46;100.00
23589;BME280;11972;48.078;11.876;2022-09-09T09:11:14;95301.69;;;15.57;100.00
23589;BME280;11972;48.078;11.876;2022-09-09T09:15:22;95306.19;;;15.57;100.00
23589;BME280;11972;48.078;11.876;2022-09-09T09:19:23;95306.19;;;15.57;100.00
23589;BME280;11972;48.078;11.876;2022-09-09T09:23:38;95296.13;;;15.59;100.00
23589;BME280;11972;48.078;11.876;2022-09-09T09:28:18;95305.66;;;15.73;100.00
23589;BME280;11972;48.078;11.876;2022-09-09T09:32:22;95292.81;;;15.88;100.00
23589;BME280;11972;48.078;11.876;2022-09-09T09:36:33;95299.28;;;16.18;100.00
23589;BME280;11972;48.078;11.876;2022-09-09T09:40:33;95304.97;;;16.21;100.00
23589;BME280;11972;48.078;11.876;2022-09-09T09:44:34;95321.56;;;16.05;100.00
23589;BME280;11972;48.078;11.876;2022-09-09T09:48:37;95319.88;;;15.85;100.00
23589;BME280;11972;48.078;11.876;2022-09-09T09:52:41;95309.94;;;15.74;100.00
23589;BME280;11972;48.078;11.876;2022-09-09T09:56:43;95316.31;;;15.73;100.00
23589;BME280;11972;48.078;11.876;2022-09-09T10:00:51;95313.53;;;15.86;100.00
23589;BME280;11972;48.078;11.876;2022-09-09T10:09:23;95319.59;;;16.49;100.00
23589;BME280;11972;48.078;11.876;2022-09-09T10:18:19;95295.19;;;17.12;100.00
23589;BME280;11972;48.078;11.876;2022-09-09T10:22:27;95300.47;;;17.54;100.00
23589;BME280;11972;48.078;11.876;2022-09-09T10:35:39;95298.38;;;17.68;100.00
23589;BME280;11972;48.078;11.876;2022-09-09T10:39:42;95298.31;;;17.74;100.00
23589;BME280;11972;48.078;11.876;2022-09-09T10:57:02;95302.06;;;16.90;100.00
23589;BME280;11972;48.078;11.876;2022-09-09T11:01:17;95301.91;;;16.73;100.00
23589;BME280;11972;48.078;11.876;2022-09-09T11:05:20;95305.56;;;16.72;100.00
23589;BME280;11972;48.078;11.876;2022-09-09T11:09:25;95306.84;;;16.88;100.00
23589;BME280;11972;48.078;11.876;2022-09-09T11:13:33;95313.66;;;16.83;100.00
23589;BME280;11972;48.078;11.876;2022-09-09T11:17:54;95299.28;;;16.84;100.00
23589;BME280;11972;48.078;11.876;2022-09-09T11:21:58;95297.50;;;16.78;100.00
23589;BME280;11972;48.078;11.876;2022-09-09T11:26:00;95298.72;;;16.94;100.00
23589;BME280;11972;48.078;11.876;2022-09-09T11:30:20;95292.44;;;17.30;100.00
23589;BME280;11972;48.078;11.876;2022-09-09T11:38:45;95291.41;;;18.25;100.00
23589;BME280;11972;48.078;11.876;2022-09-09T11:42:48;95281.81;;;18.53;100.00
23589;BME280;11972;48.078;11.876;2022-09-09T11:46:51;95291.72;;;19.09;100.00
23589;BME280;11972;48.078;11.876;2022-09-09T11:51:07;95283.81;;;19.65;100.00
23589;BME280;11972;48.078;11.876;2022-09-09T11:59:31;95294.78;;;20.58;100.00
23589;BME280;11972;48.078;11.876;2022-09-09T12:07:55;95280.28;;;21.35;100.00
23589;BME280;11972;48.078;11.876;2022-09-09T12:16:31;95279.25;;;21.73;100.00
23589;BME280;11972;48.078;11.876;2022-09-09T12:20:35;95285.88;;;21.98;100.00
23589;BME280;11972;48.078;11.876;2022-09-09T12:24:41;95277.84;;;22.08;100.00
23589;BME280;11972;48.078;11.876;2022-09-09T12:28:54;95276.91;;;22.24;100.00
23589;BME280;11972;48.078;11.876;2022-09-09T12:33:12;95272.38;;;22.35;100.00
23589;BME280;11972;48.078;11.876;2022-09-09T12:37:17;95276.50;;;22.58;100.00
23589;BME280;11972;48.078;11.876;2022-09-09T12:41:20;95280.78;;;22.49;100.00
23589;BME280;11972;48.078;11.876;2022-09-09T12:45:23;95278.09;;;22.01;100.00
23589;BME280;11972;48.078;11.876;2022-09-09T12:49:29;95276.28;;;21.75;100.00
23589;BME280;11972;48.078;11.876;2022-09-09T12:53:36;95273.06;;;21.73;100.00
23589;BME280;11972;48.078;11.876;2022-09-09T12:57:38;95261.38;;;21.52;100.00
23589;BME280;11972;48.078;11.876;2022-09-09T13:01:39;95253.25;;;21.47;100.00
23589;BME280;11972;48.078;11.876;2022-09-09T13:05:39;95262.59;;;21.76;100.00
23589;BME280;11972;48.078;11.876;2022-09-09T13:09:40;95247.81;;;22.21;100.00
23589;BME280;11972;48.078;11.876;2022-09-09T13:13:42;95244.25;;;22.68;100.00
23589;BME280;11972;48.078;11.876;2022-09-09T13:17:50;95244.84;;;22.91;100.00
23589;BME280;11972;48.078;11.876;2022-09-09T13:21:51;95237.81;;;22.79;100.00
23589;BME280;11972;48.078;11.876;2022-09-09T13:26:00;95237.16;;;22.42;100.00
23589;BME280;11972;48.078;11.876;2022-09-09T13:30:01;95231.44;;;22.23;100.00
23589;BME280;11972;48.078;11.876;2022-09-09T13:34:27;95228.47;;;22.24;100.00
23589;BME280;11972;48.078;11.876;2022-09-09T13:38:28;95230.16;;;22.36;100.00
23589;BME280;11972;48.078;11.876;2022-09-09T13:42:31;95229.44;;;22.08;100.00
23589;BME280;11972;48.078;11.876;2022-09-09T13:50:34;95223.47;;;21.21;100.00
23589;BME280;11972;48.078;11.876;2022-09-09T13:54:34;95224.50;;;20.88;100.00
23589;BME280;11972;48.078;11.876;2022-09-09T13:58:35;95218.63;;;20.64;100.00
23589;BME280;11972;48.078;11.876;2022-09-09T14:02:35;95217.25;;;20.40;100.00
23589;BME280;11972;48.078;11.876;2022-09-09T14:06:36;95212.28;;;20.26;100.00
23589;BME280;11972;48.078;11.876;2022-09-09T14:10:39;95220.28;;;20.21;100.00
23589;BME280;11972;48.078;11.876;2022-09-09T14:14:40;95210.03;;;20.18;100.00
23589;BME280;11972;48.078;11.876;2022-09-09T14:18:42;95211.41;;;19.99;100.00
23589;BME280;11972;48.078;11.876;2022-09-09T14:22:42;95210.22;;;19.90;100.00
23589;BME280;11972;48.078;11.876;2022-09-09T14:26:44;95209.16;;;19.91;100.00
23589;BME280;11972;48.078;11.876;2022-09-09T14:30:44;95207.53;;;19.90;100.00
23589;BME280;11972;48.078;11.876;2022-09-09T14:34:45;95210.91;;;20.02;100.00
23589;BME280;11972;48.078;11.876;2022-09-09T14:38:45;95206.13;;;20.04;100.00
23589;BME280;11972;48.078;11.876;2022-09-09T14:42:46;95204.09;;;19.94;100.00
23589;BME280;11972;48.078;11.876;2022-09-09T14:46:46;95204.97;;;19.78;100.00
23589;BME280;11972;48.078;11.876;2022-09-09T14:50:46;95208.88;;;19.70;100.00
23589;BME280;11972;48.078;11.876;2022-09-09T14:54:47;95205.97;;;19.72;100.00
23589;BME280;11972;48.078;11.876;2022-09-09T14:58:47;95208.13;;;19.75;100.00
23589;BME280;11972;48.078;11.876;2022-09-09T15:02:52;95208.88;;;19.70;100.00
23589;BME280;11972;48.078;11.876;2022-09-09T15:06:52;95216.34;;;19.68;100.00
23589;BME280;11972;48.078;11.876;2022-09-09T15:11:04;95218.38;;;19.44;100.00
23589;BME280;11972;48.078;11.876;2022-09-09T15:15:05;95222.88;;;19.22;100.00
23589;BME280;11972;48.078;11.876;2022-09-09T15:19:06;95215.72;;;19.11;100.00
23589;BME280;11972;48.078;11.876;2022-09-09T15:23:06;95210.03;;;19.07;100.00
23589;BME280;11972;48.078;11.876;2022-09-09T15:27:09;95215.72;;;19.11;100.00
23589;BME280;11972;48.078;11.876;2022-09-09T15:31:30;95202.56;;;19.09;100.00
23589;BME280;11972;48.078;11.876;2022-09-09T15:35:30;95200.88;;;19.03;100.00
23589;BME280;11972;48.078;11.876;2022-09-09T15:39:30;95196.97;;;18.94;100.00
23589;BME280;11972;48.078;11.876;2022-09-09T15:43:31;95201.91;;;18.85;100.00
23589;BME280;11972;48.078;11.876;2022-09-09T15:47:31;95202.31;;;18.77;100.00
23589;BME280;11972;48.078;11.876;2022-09-09T15:51:33;95212.22;;;18.76;100.00
23589;BME280;11972;48.078;11.876;2022-09-09T15:55:33;95197.31;;;18.69;100.00
23589;BME280;11972;48.078;11.876;2022-09-09T15:59:34;95207.34;;;18.62;100.00
23589;BME280;11972;48.078;11.876;2022-09-09T16:03:39;95197.28;;;18.52;100.00
23589;BME280;11972;48.078;11.876;2022-09-09T16:07:40;95198.63;;;18.38;100.00
23589;BME280;11972;48.078;11.876;2022-09-09T16:11:42;95189.81;;;18.25;100.00
23589;BME280;11972;48.078;11.876;2022-09-09T16:15:42;95174.41;;;18.16;100.00
23589;BME280;11972;48.078;11.876;2022-09-09T16:19:43;95171.03;;;18.20;100.00
23589;BME280;11972;48.078;11.876;2022-09-09T16:23:44;95172.59;;;18.33;100.00
23589;BME280;11972;48.078;11.876;2022-09-09T16:27:44;95167.69;;;18.42;100.00
23589;BME280;11972;48.078;11.876;2022-09-09T16:31:45;95174.88;;;18.41;100.00
23589;BME280;11972;48.078;11.876;2022-09-09T16:35:46;95177.44;;;18.19;100.00
23589;BME280;11972;48.078;11.876;2022-09-09T16:39:47;95170.03;;;17.98;100.00
23589;BME280;11972;48.078;11.876;2022-09-09T16:43:53;95178.69;;;17.76;100.00
23589;BME280;11972;48.078;11.876;2022-09-09T16:47:53;95176.69;;;17.72;100.00
23589;BME280;11972;48.078;11.876;2022-09-09T16:51:57;95174.06;;;18.12;100.00
23589;BME280;11972;48.078;11.876;2022-09-09T16:55:58;95168.81;;;18.74;100.00
23589;BME280;11972;48.078;11.876;2022-09-09T17:00:04;95161.34;;;19.44;100.00
23589;BME280;11972;48.078;11.876;2022-09-09T17:04:15;95153.31;;;20.04;100.00
23589;BME280;11972;48.078;11.876;2022-09-09T17:08:20;95156.59;;;20.33;100.00
23589;BME280;11972;48.078;11.876;2022-09-09T17:12:20;95155.94;;;20.48;100.00
23589;BME280;11972;48.078;11.876;2022-09-09T17:16:23;95157.09;;;20.30;100.00
23589;BME280;11972;48.078;11.876;2022-09-09T17:20:23;95169.38;;;19.82;100.00
23589;BME280;11972;48.078;11.876;2022-09-09T17:24:25;95169.81;;;19.19;100.00
23589;BME280;11972;48.078;11.876;2022-09-09T17:28:26;95167.38;;;18.55;100.00
23589;BME280;11972;48.078;11.876;2022-09-09T17:32:31;95181.22;;;17.95;100.00
23589;BME280;11972;48.078;11.876;2022-09-09T17:36:33;95179.41;;;17.36;100.00
23589;BME280;11972;48.078;11.876;2022-09-09T17:40:33;95189.00;;;16.79;100.00
23589;BME280;11972;48.078;11.876;2022-09-09T17:44:33;95185.31;;;16.31;100.00
23589;BME280;11972;48.078;11.876;2022-09-09T17:48:35;95190.34;;;15.91;100.00
23589;BME280;11972;48.078;11.876;2022-09-09T17:52:36;95194.25;;;15.52;100.00
23589;BME280;11972;48.078;11.876;2022-09-09T17:56:37;95190.06;;;15.19;100.00
23589;BME280;11972;48.078;11.876;2022-09-09T18:00:38;95193.94;;;14.98;100.00
23589;BME280;11972;48.078;11.876;2022-09-09T18:04:38;95197.78;;;14.77;100.00
23589;BME280;11972;48.078;11.876;2022-09-09T18:08:39;95207.34;;;14.53;100.00
23589;BME280;11972;48.078;11.876;2022-09-09T18:12:39;95217.25;;;14.33;100.00
23589;BME280;11972;48.078;11.876;2022-09-09T18:16:41;95225.31;;;14.13;100.00
23589;BME280;11972;48.078;11.876;2022-09-09T18:20:41;95225.59;;;13.92;100.00
23589;BME280;11972;48.078;11.876;2022-09-09T18:24:43;95234.22;;;13.74;100.00
23589;BME280;11972;48.078;11.876;2022-09-09T18:28:49;95228.13;;;13.53;100.00
23589;BME280;11972;48.078;11.876;2022-09-09T18:32:49;95237.56;;;13.36;100.00
23589;BME280;11972;48.078;11.876;2022-09-09T18:36:52;95234.72;;;13.18;100.00
23589;BME280;11972;48.078;11.876;2022-09-09T18:40:54;95238.59;;;13.02;100.00
23589;BME280;11972;48.078;11.876;2022-09-09T18:44:55;95244.88;;;12.87;100.00
23589;BME280;11972;48.078;11.876;2022-09-09T18:48:55;95239.59;;;12.74;100.00
23589;BME280;11972;48.078;11.876;2022-09-09T18:52:56;95242.44;;;12.66;100.00
23589;BME280;11972;48.078;11.876;2022-09-09T18:57:16;95252.59;;;12.62;100.00
23589;BME280;11972;48.078;11.876;2022-09-09T19:01:18;95256.66;;;12.58;100.00
23589;BME280;11972;48.078;11.876;2022-09-09T19:05:19;95270.53;;;12.54;100.00
23589;BME280;11972;48.078;11.876;2022-09-09T19:09:19;95272.53;;;12.45;100.00
23589;BME280;11972;48.078;11.876;2022-09-09T19:13:19;95274.16;;;12.39;100.00
23589;BME280;11972;48.078;11.876;2022-09-09T19:17:20;95276.19;;;12.31;100.00
23589;BME280;11972;48.078;11.876;2022-09-09T19:21:24;95275.75;;;12.27;100.00
23589;BME280;11972;48.078;11.876;2022-09-09T19:25:25;95276.97;;;12.25;100.00
23589;BME280;11972;48.078;11.876;2022-09-09T19:29:28;95287.75;;;12.23;100.00
23589;BME280;11972;48.078;11.876;2022-09-09T19:33:29;95285.28;;;12.22;100.00
23589;BME280;11972;48.078;11.876;2022-09-09T19:37:29;95302.19;;;12.14;100.00
23589;BME280;11972;48.078;11.876;2022-09-09T19:41:30;95299.72;;;12.06;100.00
23589;BME280;11972;48.078;11.876;2022-09-09T19:45:30;95305.41;;;12.09;100.00
23589;BME280;11972;48.078;11.876;2022-09-09T19:49:31;95304.25;;;12.19;100.00
23589;BME280;11972;48.078;11.876;2022-09-09T19:53:35;95311.25;;;12.39;100.00
23589;BME280;11972;48.078;11.876;2022-09-09T19:57:35;95339.63;;;12.59;100.00
23589;BME280;11972;48.078;11.876;2022-09-09T20:01:38;95359.88;;;12.86;100.00
23589;BME280;11972;48.078;11.876;2022-09-09T20:05:39;95346.06;;;13.04;100.00
23589;BME280;11972;48.078;11.876;2022-09-09T20:09:40;95348.13;;;13.22;100.00
23589;BME280;11972;48.078;11.876;2022-09-09T20:13:41;95352.03;;;13.39;100.00
23589;BME280;11972;48.078;11.876;2022-09-09T20:17:41;95346.94;;;13.31;100.00
23589;BME280;11972;48.078;11.876;2022-09-09T20:21:44;95338.97;;;13.25;100.00
23589;BME280;11972;48.078;11.876;2022-09-09T20:25:45;95346.50;;;13.21;100.00
23589;BME280;11972;48.078;11.876;2022-09-09T20:29:46;95359.19;;;13.26;100.00
23589;BME280;11972;48.078;11.876;2022-09-09T20:33:47;95349.38;;;13.26;100.00
23589;BME280;11972;48.078;11.876;2022-09-09T20:37:47;95353.41;;;13.15;100.00
23589;BME280;11972;48.078;11.876;2022-09-09T20:41:48;95351.75;;;12.88;100.00
23589;BME280;11972;48.078;11.876;2022-09-09T20:45:49;95350.03;;;12.60;100.00
23589;BME280;11972;48.078;11.876;2022-09-09T20:49:49;95348.72;;;12.36;100.00
23589;BME280;11972;48.078;11.876;2022-09-09T20:53:58;95352.13;;;12.24;100.00
23589;BME280;11972;48.078;11.876;2022-09-09T20:57:59;95352.28;;;12.15;100.00
23589;BME280;11972;48.078;11.876;2022-09-09T21:02:00;95354.47;;;12.05;100.00
23589;BME280;11972;48.078;11.876;2022-09-09T21:06:05;95366.81;;;11.91;100.00
23589;BME280;11972;48.078;11.876;2022-09-09T21:10:06;95367.94;;;11.82;100.00
23589;BME280;11972;48.078;11.876;2022-09-09T21:14:07;95367.19;;;11.88;100.00
23589;BME280;11972;48.078;11.876;2022-09-09T21:18:08;95361.13;;;11.95;100.00
23589;BME280;11972;48.078;11.876;2022-09-09T21:22:08;95366.28;;;12.03;100.00
23589;BME280;11972;48.078;11.876;2022-09-09T21:26:08;95374.22;;;12.09;100.00
23589;BME280;11972;48.078;11.876;2022-09-09T21:30:09;95380.81;;;12.20;100.00
23589;BME280;11972;48.078;11.876;2022-09-09T21:34:10;95393.53;;;12.31;100.00
23589;BME280;11972;48.078;11.876;2022-09-09T21:38:17;95389.09;;;12.45;100.00
23589;BME280;11972;48.078;11.876;2022-09-09T21:42:18;95395.25;;;12.59;100.00
23589;BME280;11972;48.078;11.876;2022-09-09T21:46:19;95396.97;;;12.73;100.00
23589;BME280;11972;48.078;11.876;2022-09-09T21:50:19;95403.13;;;12.87;100.00
23589;BME280;11972;48.078;11.876;2022-09-09T21:54:21;95437.00;;;12.98;100.00
23589;BME280;11972;48.078;11.876;2022-09-09T21:58:21;95430.91;;;13.04;100.00
23589;BME280;11972;48.078;11.876;2022-09-09T22:02:21;95422.97;;;13.11;100.00
23589;BME280;11972;48.078;11.876;2022-09-09T22:06:22;95428.09;;;13.19;100.00
23589;BME280;11972;48.078;11.876;2022-09-09T22:10:23;95427.16;;;13.33;100.00
23589;BME280;11972;48.078;11.876;2022-09-09T22:14:26;95428.38;;;13.44;100.00
23589;BME280;11972;48.078;11.876;2022-09-09T22:18:26;95430.59;;;13.40;100.00
23589;BME280;11972;48.078;11.876;2022-09-09T22:22:27;95435.03;;;13.20;100.00
23589;BME280;11972;48.078;11.876;2022-09-09T22:26:28;95421.34;;;13.10;100.00
23589;BME280;11972;48.078;11.876;2022-09-09T22:30:31;95413.34;;;13.03;100.00
23589;BME280;11972;48.078;11.876;2022-09-09T22:34:31;95408.06;;;12.97;100.00